Catàleg de serveis del Meteocat
Campanya meteocatpedra

Dades de l'estació automàtica Baldomar

?
?
Resum diari 21:30 TU
Dades diàries de l'estació meteorològica
Temperatura mitjana 15.6 °C
Temperatura màxima 21.2 °C 17:44 TU
Temperatura mínima 11.8 °C 21:59 TU
Humitat relativa mitjana 86%
Precipitació acumulada 0.6 mm
Ratxa màxima del vent (2 m) 13.7 km/h - 164º 10:40 TU
Irradiació solar global 12.5 MJ/m2

El tram horari està expressat en Temps Universal (TU). Cal sumar una hora en horari d'hivern i dues en horari d'estiu per passar a l'hora oficial.

Baldomar

Metadades estació meteorol´gica
Municipi Artesa de Segre
Comarca Noguera
Altitud 366 m
Data alta 24.10.2006
Estat actual Operativa
Dades de període
Període
TU
TM
°C
TX
°C
TN
°C
HRM
%
PPT
mm
VVM (2 m)
km/h
DVM (2 m)
graus
VVX (2 m)
km/h
RS
W/m2
00:00 - 00:30 12.5 12.6 12.4 98 0.0 0.4 42 2.5 0
00:30 - 01:00 12.3 12.4 12.1 98 0.0 1.1 70 2.9 0
01:00 - 01:30 12.1 12.3 12.0 98 0.0 0.4 25 2.2 0
01:30 - 02:00 12.2 12.3 12.0 98 0.0 1.1 346 2.5 0
02:00 - 02:30 12.1 12.2 11.9 98 0.0 1.4 156 3.2 0
02:30 - 03:00 12.2 12.3 12.2 99 0.0 1.1 39 2.9 0
03:00 - 03:30 12.3 12.4 12.2 99 0.0 2.5 154 5.0 0
03:30 - 04:00 12.4 12.5 12.3 99 0.0 1.1 185 3.2 0
04:00 - 04:30 12.2 12.3 12.0 99 0.0 1.4 345 4.3 0
04:30 - 05:00 12.1 12.3 12.0 99 0.0 0.4 176 2.5 13
05:00 - 05:30 12.5 12.8 12.3 99 0.1 0.4 250 2.2 36
05:30 - 06:00 12.8 13.0 12.7 99 0.0 1.1 300 2.9 58
06:00 - 06:30 12.9 12.9 12.8 99 0.0 2.5 224 6.8 61
06:30 - 07:00 12.8 13.0 12.6 98 0.0 3.6 226 7.9 75
07:00 - 07:30 13.2 13.5 12.9 96 0.0 3.6 207 7.2 116
07:30 - 08:00 13.5 14.0 13.4 94 0.0 2.5 232 5.8 133
08:00 - 08:30 13.8 14.1 13.7 93 0.0 2.2 244 6.1 126
08:30 - 09:00 14.2 14.5 14.0 90 0.0 4.3 204 7.9 203
09:00 - 09:30 14.9 15.3 14.4 87 0.0 5.4 174 9.7 330
09:30 - 10:00 15.4 15.7 15.2 84 0.0 4.7 176 9.7 297
10:00 - 10:30 15.7 16.2 15.2 84 0.0 6.1 158 12.6 351
10:30 - 11:00 16.2 16.9 16.0 81 0.0 5.4 149 13.7 300
11:00 - 11:30 17.0 17.2 16.9 78 0.0 4.7 157 9.4 292
11:30 - 12:00 17.5 17.9 16.9 75 0.0 2.9 149 7.2 368
12:00 - 12:30 17.7 18.0 17.5 77 0.0 5.4 131 12.6 402
12:30 - 13:00 18.4 19.1 17.9 77 0.0 4.7 99 11.2 576
13:00 - 13:30 18.8 19.5 18.5 75 0.0 3.2 109 9.7 501
13:30 - 14:00 20.0 20.6 19.2 70 0.0 2.5 107 7.9 535
14:00 - 14:30 19.1 19.9 18.2 75 0.0 4.0 286 10.8 139
14:30 - 15:00 19.0 19.4 18.3 74 0.0 4.0 223 9.4 360
15:00 - 15:30 19.2 19.5 18.8 73 0.0 3.6 172 7.2 209
15:30 - 16:00 18.8 19.5 17.8 81 0.5 2.2 291 7.6 90
16:00 - 16:30 19.2 20.4 17.8 71 0.0 2.9 185 7.6 425
16:30 - 17:00 19.5 20.4 18.7 71 0.0 3.2 319 6.8 272
17:00 - 17:30 20.1 20.6 19.4 64 0.0 1.8 141 6.1 287
17:30 - 18:00 20.8 21.2 20.2 63 0.0 2.5 214 5.4 239
18:00 - 18:30 20.6 20.9 20.2 67 0.0 1.1 267 5.0 138
18:30 - 19:00 18.8 20.4 17.7 75 0.0 1.4 175 6.5 37
19:00 - 19:30 17.3 17.9 16.4 82 0.0 1.1 360 4.7 6
19:30 - 20:00 16.0 16.4 15.5 87 0.0 2.2 42 5.4 0
20:00 - 20:30 15.2 15.7 14.7 85 0.0 2.9 68 5.8 0
20:30 - 21:00 14.6 15.2 13.8 85 0.0 2.2 94 5.8 0
21:00 - 21:30 13.9 14.5 13.5 84 0.0 1.1 161 5.8 0
21:30 - 22:00 12.5 13.3 11.8 87 0.0 1.8 358 4.3 0

Les dades en taronja només han passat un control de qualitat automàtic. Resta pendent la seva validació definitiva.